Hlavní strana
METAR-TAF:

METAR-TAF

Letiště :

Otjiwarongo, Namibie

zeměpisná šířka: 20-25-50S, zeměpisná délka: 16-39-45E, výška: 1475 m

Aktuální stav počasí

Zpráva byla vytvořena před 20 minutami, v 10:00 UTC
Jihozápadní vítr 2 kt
Teplota 27°C
Vlhkost vzduchu 20%
Tlak 1017 hPa

METAR: FYOW 101000Z AUTO 23002KT //// // ////// 27/02 Q1017

Čas: 12:20 (10:20 UTC)


TAF: chybějící

Stav a předpovědi počasí z více než 4 000 letišť (zprávy METAR a TAF).

Červené a žluté tečky na mapě představují dostupné meteorologické stanice.

Když kurzor umístíte na tečku, zobrazí se název stanice.

Pak kliknutím zobrazíte stav a předpověď počasí.

Chcete-li změnit mapu, kliknutím na zelené tlačítko se znaménkem +mapu přiblížíte, kliknutím na zelené tlačítko se znaménkem – mapu oddálíte a kliknutím na zelené šipky přejdete na sousední mapy.


METAR-TAF: